CST,Max TemperatureF,Mean TemperatureF,Min TemperatureF,Max Dew PointF,MeanDew PointF,Min DewpointF,Max Humidity, Mean Humidity, Min Humidity, Max Sea Level PressureIn, Mean Sea Level PressureIn, Min Sea Level PressureIn, Max VisibilityMiles, Mean VisibilityMiles, Min VisibilityMiles, Max Wind SpeedMPH, Mean Wind SpeedMPH, Max Gust SpeedMPH,PrecipitationIn, CloudCover, Events, WindDirDegrees
2012-11-1,82,62,42,32,29,25,57,35,13,30.01,29.92,29.80,10,10,10,16,7,21,0.00,0,,207
2012-11-2,78,62,45,34,26,19,60,38,16,30.01,29.84,29.74,10,10,10,23,13,29,0.00,0,,338
2012-11-3,62,50,37,36,32,28,79,54,29,30.21,30.14,30.02,10,10,10,14,7,16,0.00,0,,53
2012-11-4,73,52,30,38,31,26,78,71,64,30.18,30.10,29.99,10,10,10,16,7,20,0.00,0,,246
2012-11-5,69,56,43,34,32,27,57,42,26,30.21,30.12,30.04,10,10,10,17,9,23,0.00,1,,329
2012-11-6,72,56,40,38,33,29,62,45,27,30.17,30.10,30.03,10,10,10,18,6,23,0.00,0,,353
2012-11-7,81,59,37,36,33,30,43,30,16,29.88,29.84,29.78,10,10,10,22,9,26,0.00,0,,176
2012-11-8,80,63,45,36,29,21,56,36,15,29.81,29.76,29.71,10,10,10,17,8,20,0.00,0,,250
2012-11-9,81,63,45,40,32,28,60,38,15,29.72,29.64,29.56,10,10,10,33,16,41,0.00,0,,215
2012-11-10,80,64,47,51,38,15,80,50,19,29.69,29.53,29.39,10,10,6,49,22,64,T,3,Rain,217
2012-11-11,48,38,27,32,19,13,76,52,28,30.30,30.01,29.70,10,10,10,24,10,29,0.00,3,,349
2012-11-12,54,36,18,17,6,-3,73,42,10,30.43,30.38,30.32,10,10,10,14,6,17,0.00,0,,231
2012-11-13,60,44,27,16,11,6,46,31,15,30.35,30.24,30.10,10,10,10,28,14,32,0.00,0,,220
2012-11-14,65,48,30,19,13,8,39,27,14,30.32,30.19,30.05,10,10,10,18,8,26,0.00,0,,217
2012-11-15,63,46,28,25,21,14,59,41,22,30.36,30.19,30.03,10,10,10,26,14,33,0.00,0,,1
2012-11-16,61,44,27,39,31,20,75,57,39,30.40,30.29,30.16,10,10,10,20,9,25,0.00,0,,205
2012-11-17,69,56,42,44,40,37,83,59,35,30.15,30.07,30.00,10,10,10,24,14,29,0.00,0,,187
2012-11-18,69,57,44,43,37,31,83,55,26,29.99,29.94,29.88,10,10,10,20,12,24,0.00,0,,201
2012-11-19,70,51,32,40,28,25,79,50,20,30.17,30.09,29.95,10,10,10,20,7,23,0.00,0,,336
2012-11-20,73,52,31,39,28,23,66,43,19,30.25,30.17,30.10,10,10,10,15,6,20,0.00,0,,193
2012-11-21,75,58,40,43,34,26,60,40,19,30.12,29.97,29.80,10,10,10,35,19,44,0.00,0,,201
2012-11-22,72,55,37,42,30,21,76,47,17,30.37,29.99,29.78,10,10,10,29,14,38,0.00,0,,346
2012-11-23,54,42,29,23,15,13,63,43,22,30.57,30.47,30.34,10,10,10,10,6,13,0.00,0,,294
2012-11-24,67,50,33,21,19,16,48,33,18,30.32,30.04,29.83,10,10,10,23,12,28,0.00,0,,206
2012-11-25,62,48,33,23,20,13,52,36,20,29.93,29.85,29.78,10,10,10,17,8,22,0.00,0,,16
2012-11-26,42,34,25,26,21,17,85,67,48,30.49,30.24,29.88,10,10,10,25,12,32,0.00,1,,357
2012-11-27,59,38,17,28,20,14,84,56,28,30.46,30.28,30.14,10,10,10,24,9,29,0.00,0,,211
2012-11-28,56,39,21,26,21,15,77,54,30,30.28,30.17,30.03,10,10,10,14,6,16,0.00,0,,329
2012-11-29,76,51,25,21,16,10,55,32,9,30.02,29.97,29.87,10,10,10,14,5,18,0.00,0,,279
2012-11-30,68,51,33,30,22,15,53,37,20,30.04,29.93,29.79,10,10,10,12,5,15,0.00,0,,215